Leipzig, Germany

1:04 AM CET on December 26, 2014 (GMT +0100)
Leipzig / South | Change Station
CLOSE
Current Station
Personal Weather Station
Location: Leipzig, SACHSEN
Elevation: 417 ft
Nearby Weather Stations

Elev 417 ft 51.29 °N, 12.40 °E | Updated 1 second ago

Light Snow
Light Snow
32.9 °F
Feels Like 28 °F
N
5.0
Wind Variable Wind from North
Gusts 14.0 mph

Today
High -- | Low -- °F
--% Chance of Precip.
Yesterday
High -- | Low -- °F
Precip. -- in
8:14 AM 4:07 PM
Waxing Crescent, 20% visible
Pressure 30.21 in
Visibility 6.2 miles
Clouds Mostly Cloudy 600 ft
Windchill 28 °F
Dew Point 31 °F
Humidity 92%
Rainfall 0.05 in
Snow Depth Not available.
UV 0.0 out of 12
Pollen Not available.
Air Quality Not available.
Flu Activity Not available.
METAR EDDP 252350Z 31016KT 9999 -SN BKN006 00/00 Q1023 TEMPO BKN010

More Conditions Fewer Conditions

Pressure 30.21 in
Visibility 6.2 miles
Clouds Mostly Cloudy 600 ft
Windchill 28 °F
Dew Point 31 °F
Humidity 92%
Rainfall 0.05 in
Snow Depth Not available.
UV 0.0 out of 12
Pollen Not available.
Air Quality Not available.
Flu Activity Not available.
METAR EDDP 252350Z 31016KT 9999 -SN BKN006 00/00 Q1023 TEMPO BKN010

More Conditions Fewer Conditions

10-Day Weather Forecast

Almanac

Astronomy

Dec. 26, 2014 Rise Set
Actual Time
Civil Twilight
Nautical Twilight
Astronomical Twilight
Moon
Length of Visible Light
Length of Day
Tomorrow will be .
, % of the Moon is Illuminated

Today's Extremes

Country Highs Country Lows

Community

WunderPhotos

Upload Photos

1,780,468 photos uploaded!

WunderBlogs® & News

Nearby

Air Quality

  Air Quality AQ Index Pollutant
Not available.

Snow Depth

Station Depth Elevation

Earthquake Activity

City Distance Mag. Time & Date
Minimum magnitude displayed is 2.5.

Coastal Water Temperatures

Place Temperature

Nearby Weather Stations